sensor_id;sensor_type;location;lat;lon;timestamp;P1;durP1;ratioP1;P2;durP2;ratioP2
27201;SDS011;14717;46.924;15.474;2022-07-09T00:01:52;4.33;;;1.77;;
27201;SDS011;14717;46.924;15.474;2022-07-09T00:06:43;2.80;;;1.57;;
27201;SDS011;14717;46.924;15.474;2022-07-09T00:11:33;4.37;;;1.80;;
27201;SDS011;14717;46.924;15.474;2022-07-09T00:13:59;3.55;;;1.52;;
27201;SDS011;14717;46.924;15.474;2022-07-09T00:18:50;4.15;;;1.70;;
27201;SDS011;14717;46.924;15.474;2022-07-09T00:23:40;3.47;;;1.50;;
27201;SDS011;14717;46.924;15.474;2022-07-09T00:28:31;2.33;;;1.40;;
27201;SDS011;14717;46.924;15.474;2022-07-09T00:33:21;2.83;;;1.70;;
27201;SDS011;14717;46.924;15.474;2022-07-09T00:38:12;2.03;;;1.40;;
27201;SDS011;14717;46.924;15.474;2022-07-09T00:43:03;4.03;;;1.52;;
27201;SDS011;14717;46.924;15.474;2022-07-09T00:47:54;3.10;;;1.50;;
27201;SDS011;14717;46.924;15.474;2022-07-09T00:52:44;2.78;;;1.42;;
27201;SDS011;14717;46.924;15.474;2022-07-09T00:55:12;3.83;;;1.58;;
27201;SDS011;14717;46.924;15.474;2022-07-09T01:00:04;3.30;;;1.50;;
27201;SDS011;14717;46.924;15.474;2022-07-09T01:02:30;2.80;;;1.50;;
27201;SDS011;14717;46.924;15.474;2022-07-09T01:07:21;3.73;;;1.77;;
27201;SDS011;14717;46.924;15.474;2022-07-09T01:12:12;2.30;;;1.33;;
27201;SDS011;14717;46.924;15.474;2022-07-09T01:17:03;3.73;;;1.70;;
27201;SDS011;14717;46.924;15.474;2022-07-09T01:19:31;5.72;;;1.67;;
27201;SDS011;14717;46.924;15.474;2022-07-09T01:21:58;2.97;;;1.75;;
27201;SDS011;14717;46.924;15.474;2022-07-09T01:24:24;3.22;;;1.70;;
27201;SDS011;14717;46.924;15.474;2022-07-09T01:29:17;2.97;;;1.60;;
27201;SDS011;14717;46.924;15.474;2022-07-09T01:34:08;4.47;;;1.67;;
27201;SDS011;14717;46.924;15.474;2022-07-09T01:36:33;3.63;;;1.90;;
27201;SDS011;14717;46.924;15.474;2022-07-09T01:41:24;2.70;;;1.60;;
27201;SDS011;14717;46.924;15.474;2022-07-09T01:43:49;3.50;;;1.77;;
27201;SDS011;14717;46.924;15.474;2022-07-09T01:46:15;3.38;;;1.63;;
27201;SDS011;14717;46.924;15.474;2022-07-09T01:48:40;3.53;;;1.70;;
27201;SDS011;14717;46.924;15.474;2022-07-09T01:51:07;3.83;;;1.63;;
27201;SDS011;14717;46.924;15.474;2022-07-09T01:53:34;3.20;;;1.45;;
27201;SDS011;14717;46.924;15.474;2022-07-09T01:58:28;2.92;;;1.67;;
27201;SDS011;14717;46.924;15.474;2022-07-09T02:03:20;3.10;;;1.55;;
27201;SDS011;14717;46.924;15.474;2022-07-09T02:05:45;2.35;;;1.50;;
27201;SDS011;14717;46.924;15.474;2022-07-09T02:08:10;6.95;;;1.80;;
27201;SDS011;14717;46.924;15.474;2022-07-09T02:10:36;4.68;;;1.95;;
27201;SDS011;14717;46.924;15.474;2022-07-09T02:13:01;4.25;;;1.80;;
27201;SDS011;14717;46.924;15.474;2022-07-09T02:17:52;3.23;;;1.97;;
27201;SDS011;14717;46.924;15.474;2022-07-09T02:20:17;2.35;;;1.50;;
27201;SDS011;14717;46.924;15.474;2022-07-09T02:22:42;3.10;;;1.63;;
27201;SDS011;14717;46.924;15.474;2022-07-09T02:25:08;4.05;;;1.73;;
27201;SDS011;14717;46.924;15.474;2022-07-09T02:27:33;3.17;;;1.65;;
27201;SDS011;14717;46.924;15.474;2022-07-09T02:32:24;1.73;;;1.30;;
27201;SDS011;14717;46.924;15.474;2022-07-09T02:37:15;1.95;;;1.30;;
27201;SDS011;14717;46.924;15.474;2022-07-09T02:39:40;3.15;;;1.55;;
27201;SDS011;14717;46.924;15.474;2022-07-09T02:44:31;2.47;;;1.60;;
27201;SDS011;14717;46.924;15.474;2022-07-09T02:49:21;2.70;;;1.50;;
27201;SDS011;14717;46.924;15.474;2022-07-09T02:51:48;2.97;;;1.58;;
27201;SDS011;14717;46.924;15.474;2022-07-09T02:56:39;4.77;;;1.70;;
27201;SDS011;14717;46.924;15.474;2022-07-09T03:01:29;6.67;;;1.60;;
27201;SDS011;14717;46.924;15.474;2022-07-09T03:06:21;2.80;;;1.53;;
27201;SDS011;14717;46.924;15.474;2022-07-09T03:08:47;4.70;;;1.80;;
27201;SDS011;14717;46.924;15.474;2022-07-09T03:13:38;2.45;;;1.63;;
27201;SDS011;14717;46.924;15.474;2022-07-09T03:18:30;2.42;;;1.65;;
27201;SDS011;14717;46.924;15.474;2022-07-09T03:20:55;2.88;;;1.60;;
27201;SDS011;14717;46.924;15.474;2022-07-09T03:23:21;3.08;;;1.63;;
27201;SDS011;14717;46.924;15.474;2022-07-09T03:25:46;2.75;;;1.52;;
27201;SDS011;14717;46.924;15.474;2022-07-09T03:30:37;2.03;;;1.45;;
27201;SDS011;14717;46.924;15.474;2022-07-09T03:33:02;4.75;;;1.90;;
27201;SDS011;14717;46.924;15.474;2022-07-09T03:35:28;2.78;;;1.65;;
27201;SDS011;14717;46.924;15.474;2022-07-09T03:37:54;2.83;;;1.70;;
27201;SDS011;14717;46.924;15.474;2022-07-09T03:40:19;3.22;;;1.45;;
27201;SDS011;14717;46.924;15.474;2022-07-09T03:42:45;3.88;;;1.73;;
27201;SDS011;14717;46.924;15.474;2022-07-09T03:45:10;3.45;;;1.77;;
27201;SDS011;14717;46.924;15.474;2022-07-09T03:50:01;3.60;;;1.50;;
27201;SDS011;14717;46.924;15.474;2022-07-09T03:54:52;3.50;;;1.83;;
27201;SDS011;14717;46.924;15.474;2022-07-09T03:59:43;3.00;;;1.63;;
27201;SDS011;14717;46.924;15.474;2022-07-09T04:04:33;2.23;;;1.30;;
27201;SDS011;14717;46.924;15.474;2022-07-09T04:09:24;2.80;;;1.67;;
27201;SDS011;14717;46.924;15.474;2022-07-09T04:11:50;3.53;;;1.60;;
27201;SDS011;14717;46.924;15.474;2022-07-09T04:14:15;5.22;;;2.00;;
27201;SDS011;14717;46.924;15.474;2022-07-09T04:16:41;2.70;;;1.95;;
27201;SDS011;14717;46.924;15.474;2022-07-09T04:21:44;2.70;;;1.88;;
27201;SDS011;14717;46.924;15.474;2022-07-09T04:24:30;4.53;;;2.00;;
27201;SDS011;14717;46.924;15.474;2022-07-09T04:29:26;2.88;;;1.80;;
27201;SDS011;14717;46.924;15.474;2022-07-09T04:34:17;3.38;;;1.85;;
27201;SDS011;14717;46.924;15.474;2022-07-09T04:39:08;2.97;;;1.90;;
27201;SDS011;14717;46.924;15.474;2022-07-09T04:41:34;4.95;;;1.85;;
27201;SDS011;14717;46.924;15.474;2022-07-09T04:46:25;3.07;;;1.90;;
27201;SDS011;14717;46.924;15.474;2022-07-09T04:48:52;2.47;;;1.75;;
27201;SDS011;14717;46.924;15.474;2022-07-09T04:51:17;3.15;;;1.88;;
27201;SDS011;14717;46.924;15.474;2022-07-09T04:53:43;5.60;;;1.83;;
27201;SDS011;14717;46.924;15.474;2022-07-09T04:58:34;2.55;;;1.60;;
27201;SDS011;14717;46.924;15.474;2022-07-09T05:01:02;3.00;;;1.75;;
27201;SDS011;14717;46.924;15.474;2022-07-09T05:05:53;3.03;;;1.73;;
27201;SDS011;14717;46.924;15.474;2022-07-09T05:08:18;3.00;;;1.85;;
27201;SDS011;14717;46.924;15.474;2022-07-09T05:13:09;2.38;;;1.55;;
27201;SDS011;14717;46.924;15.474;2022-07-09T05:15:35;5.57;;;2.40;;
27201;SDS011;14717;46.924;15.474;2022-07-09T05:20:25;4.90;;;1.65;;
27201;SDS011;14717;46.924;15.474;2022-07-09T05:25:16;2.65;;;1.55;;
27201;SDS011;14717;46.924;15.474;2022-07-09T05:30:08;2.85;;;1.48;;
27201;SDS011;14717;46.924;15.474;2022-07-09T05:32:34;3.90;;;1.85;;
27201;SDS011;14717;46.924;15.474;2022-07-09T05:37:25;3.10;;;1.50;;
27201;SDS011;14717;46.924;15.474;2022-07-09T05:42:16;5.77;;;1.63;;
27201;SDS011;14717;46.924;15.474;2022-07-09T05:47:06;2.50;;;1.40;;
27201;SDS011;14717;46.924;15.474;2022-07-09T05:51:57;4.57;;;1.67;;
27201;SDS011;14717;46.924;15.474;2022-07-09T05:56:48;2.75;;;1.73;;
27201;SDS011;14717;46.924;15.474;2022-07-09T06:01:39;2.67;;;1.30;;
27201;SDS011;14717;46.924;15.474;2022-07-09T06:04:06;4.50;;;1.58;;
27201;SDS011;14717;46.924;15.474;2022-07-09T06:06:32;2.17;;;1.40;;
27201;SDS011;14717;46.924;15.474;2022-07-09T06:08:58;3.55;;;1.50;;
27201;SDS011;14717;46.924;15.474;2022-07-09T06:11:23;4.53;;;1.55;;
27201;SDS011;14717;46.924;15.474;2022-07-09T06:13:49;3.47;;;1.60;;
27201;SDS011;14717;46.924;15.474;2022-07-09T06:16:14;3.25;;;1.50;;
27201;SDS011;14717;46.924;15.474;2022-07-09T06:18:40;3.13;;;1.63;;
27201;SDS011;14717;46.924;15.474;2022-07-09T06:21:05;4.20;;;1.50;;
27201;SDS011;14717;46.924;15.474;2022-07-09T06:23:31;3.20;;;1.35;;
27201;SDS011;14717;46.924;15.474;2022-07-09T06:25:56;2.97;;;1.55;;
27201;SDS011;14717;46.924;15.474;2022-07-09T06:28:21;2.85;;;1.45;;
27201;SDS011;14717;46.924;15.474;2022-07-09T06:30:47;2.15;;;1.38;;
27201;SDS011;14717;46.924;15.474;2022-07-09T06:33:12;2.45;;;1.45;;
27201;SDS011;14717;46.924;15.474;2022-07-09T06:35:39;2.75;;;1.50;;
27201;SDS011;14717;46.924;15.474;2022-07-09T06:38:04;2.35;;;1.50;;
27201;SDS011;14717;46.924;15.474;2022-07-09T06:40:30;1.63;;;1.25;;
27201;SDS011;14717;46.924;15.474;2022-07-09T06:42:55;3.88;;;1.25;;
27201;SDS011;14717;46.924;15.474;2022-07-09T06:45:21;2.50;;;1.30;;
27201;SDS011;14717;46.924;15.474;2022-07-09T06:47:46;2.67;;;1.10;;
27201;SDS011;14717;46.924;15.474;2022-07-09T06:50:12;3.38;;;1.30;;
27201;SDS011;14717;46.924;15.474;2022-07-09T06:52:37;2.35;;;1.10;;
27201;SDS011;14717;46.924;15.474;2022-07-09T06:55:03;2.33;;;1.10;;
27201;SDS011;14717;46.924;15.474;2022-07-09T06:57:29;4.38;;;1.20;;
27201;SDS011;14717;46.924;15.474;2022-07-09T06:59:55;2.83;;;1.13;;
27201;SDS011;14717;46.924;15.474;2022-07-09T07:02:21;2.55;;;1.30;;
27201;SDS011;14717;46.924;15.474;2022-07-09T07:04:46;2.85;;;1.30;;
27201;SDS011;14717;46.924;15.474;2022-07-09T07:07:12;2.22;;;1.13;;
27201;SDS011;14717;46.924;15.474;2022-07-09T07:09:37;3.08;;;1.48;;
27201;SDS011;14717;46.924;15.474;2022-07-09T07:12:03;2.78;;;1.30;;
27201;SDS011;14717;46.924;15.474;2022-07-09T07:14:28;2.72;;;1.15;;
27201;SDS011;14717;46.924;15.474;2022-07-09T07:16:54;2.72;;;1.42;;
27201;SDS011;14717;46.924;15.474;2022-07-09T07:19:19;2.75;;;1.27;;
27201;SDS011;14717;46.924;15.474;2022-07-09T07:21:46;2.85;;;1.30;;
27201;SDS011;14717;46.924;15.474;2022-07-09T07:24:12;2.05;;;1.27;;
27201;SDS011;14717;46.924;15.474;2022-07-09T07:26:38;1.98;;;1.15;;
27201;SDS011;14717;46.924;15.474;2022-07-09T07:29:03;2.53;;;1.30;;
27201;SDS011;14717;46.924;15.474;2022-07-09T07:31:29;2.00;;;1.23;;
27201;SDS011;14717;46.924;15.474;2022-07-09T07:33:55;2.60;;;1.10;;
27201;SDS011;14717;46.924;15.474;2022-07-09T07:36:20;3.38;;;1.20;;
27201;SDS011;14717;46.924;15.474;2022-07-09T07:38:45;3.75;;;1.30;;
27201;SDS011;14717;46.924;15.474;2022-07-09T07:41:11;2.47;;;1.42;;
27201;SDS011;14717;46.924;15.474;2022-07-09T07:43:37;1.52;;;1.00;;
27201;SDS011;14717;46.924;15.474;2022-07-09T07:46:03;2.85;;;1.23;;
27201;SDS011;14717;46.924;15.474;2022-07-09T07:48:28;3.05;;;1.35;;
27201;SDS011;14717;46.924;15.474;2022-07-09T07:50:55;3.58;;;1.42;;
27201;SDS011;14717;46.924;15.474;2022-07-09T07:53:21;2.15;;;1.33;;
27201;SDS011;14717;46.924;15.474;2022-07-09T07:55:47;2.47;;;1.50;;
27201;SDS011;14717;46.924;15.474;2022-07-09T07:58:12;3.17;;;1.10;;
27201;SDS011;14717;46.924;15.474;2022-07-09T08:00:38;2.75;;;1.23;;
27201;SDS011;14717;46.924;15.474;2022-07-09T08:03:03;2.15;;;1.10;;
27201;SDS011;14717;46.924;15.474;2022-07-09T08:05:29;3.15;;;1.25;;
27201;SDS011;14717;46.924;15.474;2022-07-09T08:07:55;2.05;;;1.10;;
27201;SDS011;14717;46.924;15.474;2022-07-09T08:10:20;3.28;;;1.05;;
27201;SDS011;14717;46.924;15.474;2022-07-09T08:12:46;2.83;;;1.10;;
27201;SDS011;14717;46.924;15.474;2022-07-09T08:15:11;4.10;;;1.45;;
27201;SDS011;14717;46.924;15.474;2022-07-09T08:17:37;3.20;;;0.98;;
27201;SDS011;14717;46.924;15.474;2022-07-09T08:20:02;1.77;;;1.17;;
27201;SDS011;14717;46.924;15.474;2022-07-09T08:22:29;1.77;;;1.20;;
27201;SDS011;14717;46.924;15.474;2022-07-09T08:24:54;2.97;;;1.30;;
27201;SDS011;14717;46.924;15.474;2022-07-09T08:27:19;5.03;;;1.33;;
27201;SDS011;14717;46.924;15.474;2022-07-09T08:29:45;2.47;;;1.08;;
27201;SDS011;14717;46.924;15.474;2022-07-09T08:32:13;2.53;;;1.10;;
27201;SDS011;14717;46.924;15.474;2022-07-09T08:34:39;4.63;;;1.33;;
27201;SDS011;14717;46.924;15.474;2022-07-09T08:37:04;2.75;;;1.23;;
27201;SDS011;14717;46.924;15.474;2022-07-09T08:39:30;4.53;;;1.10;;
27201;SDS011;14717;46.924;15.474;2022-07-09T08:41:55;1.88;;;1.00;;
27201;SDS011;14717;46.924;15.474;2022-07-09T08:44:21;2.83;;;1.10;;
27201;SDS011;14717;46.924;15.474;2022-07-09T08:46:51;1.88;;;1.08;;
27201;SDS011;14717;46.924;15.474;2022-07-09T08:49:16;2.65;;;1.15;;
27201;SDS011;14717;46.924;15.474;2022-07-09T08:51:43;1.38;;;0.90;;
27201;SDS011;14717;46.924;15.474;2022-07-09T08:54:09;1.50;;;1.05;;
27201;SDS011;14717;46.924;15.474;2022-07-09T08:56:35;3.88;;;1.20;;
27201;SDS011;14717;46.924;15.474;2022-07-09T08:59:01;4.07;;;1.45;;
27201;SDS011;14717;46.924;15.474;2022-07-09T09:01:26;3.97;;;1.20;;
27201;SDS011;14717;46.924;15.474;2022-07-09T09:03:52;4.10;;;1.35;;
27201;SDS011;14717;46.924;15.474;2022-07-09T09:06:20;4.05;;;1.52;;
27201;SDS011;14717;46.924;15.474;2022-07-09T09:08:47;1.58;;;1.10;;
27201;SDS011;14717;46.924;15.474;2022-07-09T09:11:13;3.35;;;1.00;;
27201;SDS011;14717;46.924;15.474;2022-07-09T09:13:44;2.58;;;1.13;;
27201;SDS011;14717;46.924;15.474;2022-07-09T09:16:11;3.65;;;1.70;;
27201;SDS011;14717;46.924;15.474;2022-07-09T09:18:42;4.20;;;0.90;;
27201;SDS011;14717;46.924;15.474;2022-07-09T09:21:09;1.73;;;1.05;;
27201;SDS011;14717;46.924;15.474;2022-07-09T09:23:42;4.10;;;1.10;;
27201;SDS011;14717;46.924;15.474;2022-07-09T09:26:13;1.98;;;0.88;;
27201;SDS011;14717;46.924;15.474;2022-07-09T09:28:50;2.20;;;0.95;;
27201;SDS011;14717;46.924;15.474;2022-07-09T09:31:18;3.25;;;1.10;;
27201;SDS011;14717;46.924;15.474;2022-07-09T09:33:51;2.33;;;1.00;;
27201;SDS011;14717;46.924;15.474;2022-07-09T09:36:31;2.65;;;0.98;;
27201;SDS011;14717;46.924;15.474;2022-07-09T09:41:50;2.58;;;0.93;;
27201;SDS011;14717;46.924;15.474;2022-07-09T09:44:29;2.60;;;1.05;;
27201;SDS011;14717;46.924;15.474;2022-07-09T09:47:08;3.88;;;1.10;;
27201;SDS011;14717;46.924;15.474;2022-07-09T09:49:34;2.20;;;0.90;;
27201;SDS011;14717;46.924;15.474;2022-07-09T09:52:03;3.20;;;1.27;;
27201;SDS011;14717;46.924;15.474;2022-07-09T09:54:32;3.83;;;1.20;;
27201;SDS011;14717;46.924;15.474;2022-07-09T09:56:59;2.17;;;0.90;;
27201;SDS011;14717;46.924;15.474;2022-07-09T09:59:25;2.10;;;1.00;;
27201;SDS011;14717;46.924;15.474;2022-07-09T10:01:51;2.58;;;1.10;;
27201;SDS011;14717;46.924;15.474;2022-07-09T10:04:17;1.70;;;0.90;;
27201;SDS011;14717;46.924;15.474;2022-07-09T10:06:43;2.10;;;0.90;;
27201;SDS011;14717;46.924;15.474;2022-07-09T10:09:11;3.13;;;1.00;;
27201;SDS011;14717;46.924;15.474;2022-07-09T10:11:45;2.70;;;1.10;;
27201;SDS011;14717;46.924;15.474;2022-07-09T10:14:28;1.55;;;1.08;;
27201;SDS011;14717;46.924;15.474;2022-07-09T10:19:53;1.35;;;0.90;;
27201;SDS011;14717;46.924;15.474;2022-07-09T10:22:42;3.95;;;1.40;;
27201;SDS011;14717;46.924;15.474;2022-07-09T10:25:08;1.85;;;0.85;;
27201;SDS011;14717;46.924;15.474;2022-07-09T10:27:44;2.63;;;1.00;;
27201;SDS011;14717;46.924;15.474;2022-07-09T10:30:23;3.63;;;1.08;;
27201;SDS011;14717;46.924;15.474;2022-07-09T10:33:06;4.90;;;1.30;;
27201;SDS011;14717;46.924;15.474;2022-07-09T10:35:44;3.72;;;1.38;;
27201;SDS011;14717;46.924;15.474;2022-07-09T10:38:16;1.85;;;0.95;;
27201;SDS011;14717;46.924;15.474;2022-07-09T10:40:43;2.92;;;1.10;;
27201;SDS011;14717;46.924;15.474;2022-07-09T10:43:12;1.33;;;1.00;;
27201;SDS011;14717;46.924;15.474;2022-07-09T10:45:42;6.20;;;1.00;;
27201;SDS011;14717;46.924;15.474;2022-07-09T10:48:15;1.95;;;0.93;;
27201;SDS011;14717;46.924;15.474;2022-07-09T10:50:45;2.42;;;1.23;;
27201;SDS011;14717;46.924;15.474;2022-07-09T10:53:13;4.70;;;1.20;;
27201;SDS011;14717;46.924;15.474;2022-07-09T10:55:42;2.15;;;0.98;;
27201;SDS011;14717;46.924;15.474;2022-07-09T10:58:16;2.55;;;1.08;;
27201;SDS011;14717;46.924;15.474;2022-07-09T11:00:42;1.80;;;0.90;;
27201;SDS011;14717;46.924;15.474;2022-07-09T11:03:08;2.80;;;0.98;;
27201;SDS011;14717;46.924;15.474;2022-07-09T11:05:34;1.30;;;0.90;;
27201;SDS011;14717;46.924;15.474;2022-07-09T11:08:09;18.92;;;5.20;;
27201;SDS011;14717;46.924;15.474;2022-07-09T11:10:36;2.28;;;1.10;;
27201;SDS011;14717;46.924;15.474;2022-07-09T11:13:02;4.47;;;1.20;;
27201;SDS011;14717;46.924;15.474;2022-07-09T11:15:31;7.30;;;1.10;;
27201;SDS011;14717;46.924;15.474;2022-07-09T11:18:10;3.53;;;0.90;;
27201;SDS011;14717;46.924;15.474;2022-07-09T11:20:39;2.28;;;0.90;;
27201;SDS011;14717;46.924;15.474;2022-07-09T11:23:12;1.67;;;1.13;;
27201;SDS011;14717;46.924;15.474;2022-07-09T11:25:38;2.25;;;1.00;;
27201;SDS011;14717;46.924;15.474;2022-07-09T11:28:04;2.60;;;1.25;;
27201;SDS011;14717;46.924;15.474;2022-07-09T11:30:30;2.25;;;1.00;;
27201;SDS011;14717;46.924;15.474;2022-07-09T11:32:57;1.35;;;0.60;;
27201;SDS011;14717;46.924;15.474;2022-07-09T11:35:33;1.92;;;0.98;;
27201;SDS011;14717;46.924;15.474;2022-07-09T11:38:00;1.60;;;0.77;;
27201;SDS011;14717;46.924;15.474;2022-07-09T11:40:26;1.55;;;0.68;;
27201;SDS011;14717;46.924;15.474;2022-07-09T11:42:52;2.67;;;0.80;;
27201;SDS011;14717;46.924;15.474;2022-07-09T11:45:25;2.05;;;0.90;;
27201;SDS011;14717;46.924;15.474;2022-07-09T11:48:04;1.67;;;0.90;;
27201;SDS011;14717;46.924;15.474;2022-07-09T11:50:31;3.00;;;0.88;;
27201;SDS011;14717;46.924;15.474;2022-07-09T11:52:57;2.42;;;1.27;;
27201;SDS011;14717;46.924;15.474;2022-07-09T11:55:30;1.30;;;0.88;;
27201;SDS011;14717;46.924;15.474;2022-07-09T11:58:05;1.48;;;0.80;;
27201;SDS011;14717;46.924;15.474;2022-07-09T12:00:32;1.35;;;0.90;;
27201;SDS011;14717;46.924;15.474;2022-07-09T12:02:58;3.70;;;0.82;;
27201;SDS011;14717;46.924;15.474;2022-07-09T12:05:28;3.97;;;0.80;;
27201;SDS011;14717;46.924;15.474;2022-07-09T12:08:04;5.78;;;0.90;;
27201;SDS011;14717;46.924;15.474;2022-07-09T12:10:38;2.55;;;0.95;;
27201;SDS011;14717;46.924;15.474;2022-07-09T12:13:05;3.67;;;0.90;;
27201;SDS011;14717;46.924;15.474;2022-07-09T12:15:31;2.83;;;0.80;;
27201;SDS011;14717;46.924;15.474;2022-07-09T12:17:58;1.23;;;0.73;;
27201;SDS011;14717;46.924;15.474;2022-07-09T12:20:27;2.90;;;1.10;;
27201;SDS011;14717;46.924;15.474;2022-07-09T12:22:53;1.95;;;0.82;;
27201;SDS011;14717;46.924;15.474;2022-07-09T12:25:19;0.55;;;0.55;;
27201;SDS011;14717;46.924;15.474;2022-07-09T12:27:45;2.00;;;1.00;;
27201;SDS011;14717;46.924;15.474;2022-07-09T12:30:12;1.55;;;0.63;;
27201;SDS011;14717;46.924;15.474;2022-07-09T12:32:39;2.15;;;0.98;;
27201;SDS011;14717;46.924;15.474;2022-07-09T12:35:06;1.30;;;0.80;;
27201;SDS011;14717;46.924;15.474;2022-07-09T12:37:32;1.58;;;0.70;;
27201;SDS011;14717;46.924;15.474;2022-07-09T12:39:59;0.88;;;0.63;;
27201;SDS011;14717;46.924;15.474;2022-07-09T12:42:25;2.20;;;0.88;;
27201;SDS011;14717;46.924;15.474;2022-07-09T12:44:50;2.20;;;0.75;;
27201;SDS011;14717;46.924;15.474;2022-07-09T12:47:16;2.40;;;0.85;;
27201;SDS011;14717;46.924;15.474;2022-07-09T12:49:41;1.30;;;0.80;;
27201;SDS011;14717;46.924;15.474;2022-07-09T12:52:07;1.58;;;0.80;;
27201;SDS011;14717;46.924;15.474;2022-07-09T12:54:35;1.88;;;0.73;;
27201;SDS011;14717;46.924;15.474;2022-07-09T12:57:00;2.13;;;0.63;;
27201;SDS011;14717;46.924;15.474;2022-07-09T12:59:26;2.65;;;0.90;;
27201;SDS011;14717;46.924;15.474;2022-07-09T13:01:51;0.70;;;0.70;;
27201;SDS011;14717;46.924;15.474;2022-07-09T13:04:17;1.55;;;0.75;;
27201;SDS011;14717;46.924;15.474;2022-07-09T13:06:42;1.45;;;0.95;;
27201;SDS011;14717;46.924;15.474;2022-07-09T13:09:08;1.40;;;0.70;;
27201;SDS011;14717;46.924;15.474;2022-07-09T13:11:35;0.95;;;0.75;;
27201;SDS011;14717;46.924;15.474;2022-07-09T13:14:01;3.15;;;1.00;;
27201;SDS011;14717;46.924;15.474;2022-07-09T13:16:27;2.78;;;0.95;;
27201;SDS011;14717;46.924;15.474;2022-07-09T13:18:52;2.28;;;1.02;;
27201;SDS011;14717;46.924;15.474;2022-07-09T13:21:18;1.38;;;0.80;;
27201;SDS011;14717;46.924;15.474;2022-07-09T13:23:45;3.42;;;0.88;;
27201;SDS011;14717;46.924;15.474;2022-07-09T13:26:11;1.83;;;0.70;;
27201;SDS011;14717;46.924;15.474;2022-07-09T13:28:37;0.98;;;0.65;;
27201;SDS011;14717;46.924;15.474;2022-07-09T13:31:02;0.90;;;0.55;;
27201;SDS011;14717;46.924;15.474;2022-07-09T13:33:28;1.30;;;0.70;;
27201;SDS011;14717;46.924;15.474;2022-07-09T13:35:54;2.05;;;0.70;;
27201;SDS011;14717;46.924;15.474;2022-07-09T13:38:19;3.33;;;0.90;;
27201;SDS011;14717;46.924;15.474;2022-07-09T13:40:45;1.02;;;0.80;;
27201;SDS011;14717;46.924;15.474;2022-07-09T13:43:10;2.78;;;0.90;;
27201;SDS011;14717;46.924;15.474;2022-07-09T13:45:36;2.15;;;0.80;;
27201;SDS011;14717;46.924;15.474;2022-07-09T13:48:01;2.33;;;0.80;;
27201;SDS011;14717;46.924;15.474;2022-07-09T13:50:27;2.42;;;1.00;;
27201;SDS011;14717;46.924;15.474;2022-07-09T13:52:53;2.53;;;0.82;;
27201;SDS011;14717;46.924;15.474;2022-07-09T13:55:18;1.05;;;0.55;;
27201;SDS011;14717;46.924;15.474;2022-07-09T13:57:43;2.20;;;1.00;;
27201;SDS011;14717;46.924;15.474;2022-07-09T14:00:10;1.95;;;0.95;;
27201;SDS011;14717;46.924;15.474;2022-07-09T14:02:36;3.45;;;1.33;;
27201;SDS011;14717;46.924;15.474;2022-07-09T14:05:02;2.22;;;0.90;;
27201;SDS011;14717;46.924;15.474;2022-07-09T14:07:28;0.88;;;0.63;;
27201;SDS011;14717;46.924;15.474;2022-07-09T14:09:54;3.33;;;1.42;;
27201;SDS011;14717;46.924;15.474;2022-07-09T14:12:19;3.95;;;1.95;;
27201;SDS011;14717;46.924;15.474;2022-07-09T14:14:47;2.55;;;0.95;;
27201;SDS011;14717;46.924;15.474;2022-07-09T14:17:12;1.15;;;0.70;;
27201;SDS011;14717;46.924;15.474;2022-07-09T14:19:39;1.20;;;0.80;;
27201;SDS011;14717;46.924;15.474;2022-07-09T14:22:04;0.82;;;0.60;;
27201;SDS011;14717;46.924;15.474;2022-07-09T14:24:31;3.13;;;0.85;;
27201;SDS011;14717;46.924;15.474;2022-07-09T14:26:56;1.83;;;0.60;;
27201;SDS011;14717;46.924;15.474;2022-07-09T14:29:21;1.52;;;0.77;;
27201;SDS011;14717;46.924;15.474;2022-07-09T14:31:47;0.90;;;0.52;;
27201;SDS011;14717;46.924;15.474;2022-07-09T14:34:13;1.15;;;0.68;;
27201;SDS011;14717;46.924;15.474;2022-07-09T14:36:38;1.67;;;0.80;;
27201;SDS011;14717;46.924;15.474;2022-07-09T14:39:03;1.30;;;0.68;;
27201;SDS011;14717;46.924;15.474;2022-07-09T14:41:30;1.77;;;0.65;;
27201;SDS011;14717;46.924;15.474;2022-07-09T14:43:55;1.25;;;0.60;;
27201;SDS011;14717;46.924;15.474;2022-07-09T14:46:21;0.90;;;0.70;;
27201;SDS011;14717;46.924;15.474;2022-07-09T14:48:46;2.05;;;0.60;;
27201;SDS011;14717;46.924;15.474;2022-07-09T14:51:12;0.95;;;0.57;;
27201;SDS011;14717;46.924;15.474;2022-07-09T14:53:38;1.50;;;0.70;;
27201;SDS011;14717;46.924;15.474;2022-07-09T14:56:04;1.38;;;0.80;;
27201;SDS011;14717;46.924;15.474;2022-07-09T14:58:30;0.90;;;0.70;;
27201;SDS011;14717;46.924;15.474;2022-07-09T15:00:56;1.15;;;0.65;;
27201;SDS011;14717;46.924;15.474;2022-07-09T15:03:22;1.33;;;0.82;;
27201;SDS011;14717;46.924;15.474;2022-07-09T15:05:48;1.35;;;0.70;;
27201;SDS011;14717;46.924;15.474;2022-07-09T15:08:13;1.20;;;0.70;;
27201;SDS011;14717;46.924;15.474;2022-07-09T15:10:39;2.05;;;0.70;;
27201;SDS011;14717;46.924;15.474;2022-07-09T15:13:04;0.95;;;0.70;;
27201;SDS011;14717;46.924;15.474;2022-07-09T15:15:31;2.63;;;0.80;;
27201;SDS011;14717;46.924;15.474;2022-07-09T15:17:58;1.90;;;0.85;;
27201;SDS011;14717;46.924;15.474;2022-07-09T15:20:24;2.25;;;0.88;;
27201;SDS011;14717;46.924;15.474;2022-07-09T15:22:49;1.55;;;1.00;;
27201;SDS011;14717;46.924;15.474;2022-07-09T15:25:15;6.05;;;0.93;;
27201;SDS011;14717;46.924;15.474;2022-07-09T15:27:40;1.48;;;0.80;;
27201;SDS011;14717;46.924;15.474;2022-07-09T15:30:07;0.85;;;0.70;;
27201;SDS011;14717;46.924;15.474;2022-07-09T15:32:33;1.23;;;0.73;;
27201;SDS011;14717;46.924;15.474;2022-07-09T15:34:59;1.48;;;0.85;;
27201;SDS011;14717;46.924;15.474;2022-07-09T15:37:27;0.98;;;0.60;;
27201;SDS011;14717;46.924;15.474;2022-07-09T15:39:53;1.77;;;0.80;;
27201;SDS011;14717;46.924;15.474;2022-07-09T15:42:19;2.20;;;0.90;;
27201;SDS011;14717;46.924;15.474;2022-07-09T15:44:45;1.50;;;0.80;;
27201;SDS011;14717;46.924;15.474;2022-07-09T15:47:10;2.28;;;0.90;;
27201;SDS011;14717;46.924;15.474;2022-07-09T15:49:36;3.60;;;1.08;;
27201;SDS011;14717;46.924;15.474;2022-07-09T15:52:03;1.75;;;0.88;;
27201;SDS011;14717;46.924;15.474;2022-07-09T15:54:30;0.73;;;0.60;;
27201;SDS011;14717;46.924;15.474;2022-07-09T15:56:55;2.20;;;0.70;;
27201;SDS011;14717;46.924;15.474;2022-07-09T15:59:21;0.80;;;0.60;;
27201;SDS011;14717;46.924;15.474;2022-07-09T16:01:47;1.25;;;0.65;;
27201;SDS011;14717;46.924;15.474;2022-07-09T16:04:12;1.30;;;0.70;;
27201;SDS011;14717;46.924;15.474;2022-07-09T16:06:38;1.95;;;0.80;;
27201;SDS011;14717;46.924;15.474;2022-07-09T16:09:04;1.75;;;0.80;;
27201;SDS011;14717;46.924;15.474;2022-07-09T16:11:30;1.88;;;0.80;;
27201;SDS011;14717;46.924;15.474;2022-07-09T16:14:15;1.05;;;0.77;;
27201;SDS011;14717;46.924;15.474;2022-07-09T16:16:41;1.77;;;0.75;;
27201;SDS011;14717;46.924;15.474;2022-07-09T16:19:07;1.58;;;0.60;;
27201;SDS011;14717;46.924;15.474;2022-07-09T16:21:33;0.77;;;0.68;;
27201;SDS011;14717;46.924;15.474;2022-07-09T16:23:59;2.20;;;0.77;;
27201;SDS011;14717;46.924;15.474;2022-07-09T16:26:25;2.15;;;1.00;;
27201;SDS011;14717;46.924;15.474;2022-07-09T16:28:51;2.28;;;0.90;;
27201;SDS011;14717;46.924;15.474;2022-07-09T16:31:17;0.98;;;0.70;;
27201;SDS011;14717;46.924;15.474;2022-07-09T16:33:42;3.38;;;0.77;;
27201;SDS011;14717;46.924;15.474;2022-07-09T16:36:10;0.68;;;0.63;;
27201;SDS011;14717;46.924;15.474;2022-07-09T16:38:37;0.93;;;0.77;;
27201;SDS011;14717;46.924;15.474;2022-07-09T16:41:03;1.55;;;0.93;;
27201;SDS011;14717;46.924;15.474;2022-07-09T16:43:29;2.58;;;0.82;;